.
WxDataArchive / Data Records for 2013-12-25
2013-12-24 December 2013 2013-12-26

Data Records for Wednesday, 25 December 2013

Time	Temp	Chill	HIndex	Humid	Dewpt	 Wind 	HiWind	WindDir	Rain 	Barom 
-----	----	-----	------	-----	-----	------	------	-------	-----	----- 
00:00	13.1	13.1	13.1	83	8.9	0	0	---	0.00	30.517 
00:05	13.3	13.3	13.3	83	9.1	0	2	270	0.00	30.517 
00:10	13.5	13.5	13.5	83	9.3	0	1	270	0.00	30.517 
00:15	13.6	13.6	13.6	83	9.4	0	1	270	0.00	30.503 
00:20	13.8	13.8	13.8	84	9.9	0	1	270	0.00	30.503 
00:25	14.0	14.0	14.0	84	10.1	0	1	270	0.00	30.503 
00:30	14.3	14.3	14.3	84	10.4	0	2	270	0.00	30.501 
00:35	14.4	14.4	14.4	83	10.2	0	2	270	0.00	30.501 
00:40	14.4	14.4	14.4	83	10.2	0	1	270	0.00	30.501 
00:45	14.6	14.6	14.6	83	10.4	0	1	270	0.00	30.496 
00:50	14.6	14.6	14.6	83	10.4	0	1	270	0.00	30.496 
00:55	14.8	14.8	14.8	83	10.6	0	2	270	0.00	30.496 
01:00	15.1	15.1	15.1	84	11.2	1	3	270	0.00	30.481 
01:05	15.2	15.2	15.2	83	11.0	0	3	270	0.00	30.481 
01:10	15.4	15.4	15.4	83	11.2	0	2	270	0.00	30.481 
01:15	15.6	15.6	15.6	83	11.4	0	2	270	0.00	30.481 
01:20	15.6	15.6	15.6	83	11.4	0	1	270	0.00	30.481 
01:25	15.7	15.7	15.7	83	11.5	0	1	270	0.00	30.481 
01:30	15.9	15.9	15.9	83	11.7	0	2	270	0.00	30.494 
01:35	16.1	16.1	16.1	82	11.6	0	2	270	0.00	30.494 
01:40	16.1	16.1	16.1	82	11.6	0	1	270	0.00	30.494 
01:45	16.2	16.2	16.2	82	11.7	0	1	270	0.00	30.477 
01:50	16.4	16.4	16.4	82	11.9	0	1	270	0.00	30.477 
01:55	16.5	16.5	16.5	81	11.7	0	1	270	0.00	30.477 
02:00	16.5	16.5	16.5	81	11.7	0	1	270	0.00	30.481 
02:05	16.7	16.7	16.7	81	11.9	0	3	270	0.00	30.481 
02:10	16.7	16.7	16.7	81	11.9	0	1	270	0.00	30.481 
02:15	16.9	16.9	16.9	81	12.1	0	2	270	0.00	30.473 
02:20	16.9	16.9	16.9	81	12.1	0	1	270	0.00	30.473 
02:25	17.0	17.0	17.0	81	12.2	0	2	270	0.00	30.473 
02:30	17.2	17.2	17.2	81	12.4	0	1	270	0.00	30.464 
02:35	17.2	17.2	17.2	81	12.4	0	3	270	0.00	30.464 
02:40	17.3	17.3	17.3	80	12.2	0	2	68	0.00	30.464 
02:45	17.3	17.3	17.3	80	12.2	1	5	112	0.00	30.469 
02:50	17.5	17.5	17.5	80	12.4	0	2	112	0.00	30.469 
02:55	17.7	17.7	17.7	80	12.6	0	2	112	0.00	30.469 
03:00	17.8	17.8	17.8	80	12.7	0	2	90	0.00	30.462 
03:05	17.8	17.8	17.8	79	12.4	1	3	112	0.00	30.462 
03:10	18.0	18.0	18.0	79	12.6	1	5	112	0.00	30.462 
03:15	18.1	18.1	18.1	79	12.7	1	3	112	0.00	30.466 
03:20	18.1	18.1	18.1	78	12.4	1	5	112	0.00	30.466 
03:25	18.1	18.1	18.1	78	12.4	1	4	112	0.00	30.466 
03:30	18.3	18.3	18.3	79	12.9	0	4	112	0.00	30.465 
03:35	18.3	18.3	18.3	79	12.9	0	2	112	0.00	30.465 
03:40	18.3	18.3	18.3	78	12.6	1	4	112	0.00	30.465 
03:45	18.4	18.4	18.4	78	12.7	1	3	90	0.00	30.459 
03:50	18.4	18.4	18.4	78	12.7	1	3	112	0.00	30.459 
03:55	18.4	18.4	18.4	77	12.4	1	4	112	0.00	30.459 
04:00	18.4	18.4	18.4	77	12.4	1	3	112	0.00	30.447 
04:05	18.4	18.4	18.4	77	12.4	1	3	112	0.00	30.447 
04:10	18.4	18.4	18.4	77	12.4	1	4	112	0.00	30.447 
04:15	18.4	18.4	18.4	77	12.4	1	5	112	0.00	30.438 
04:20	18.4	18.4	18.4	77	12.4	1	5	112	0.00	30.438 
04:25	18.4	18.4	18.4	77	12.4	1	3	112	0.00	30.438 
04:30	18.4	18.4	18.4	78	12.7	0	3	90	0.00	30.438 
04:35	18.4	18.4	18.4	78	12.7	0	3	112	0.00	30.438 
04:40	18.6	18.6	18.6	78	12.9	1	2	112	0.00	30.438 
04:45	18.6	18.6	18.6	78	12.9	0	4	112	0.00	30.430 
04:50	18.6	18.6	18.6	78	12.9	0	3	112	0.00	30.430 
04:55	18.8	18.8	18.8	78	13.1	1	5	112	0.00	30.430 
05:00	18.8	18.8	18.8	78	13.1	0	3	112	0.00	30.427 
05:05	18.9	18.9	18.9	77	12.9	0	3	112	0.00	30.427 
05:10	18.9	18.9	18.9	77	12.9	1	3	112	0.00	30.427 
05:15	18.9	18.9	18.9	77	12.9	0	2	158	0.00	30.421 
05:20	19.1	19.1	19.1	77	13.1	1	4	112	0.00	30.421 
05:25	19.1	19.1	19.1	77	13.1	1	3	112	0.00	30.421 
05:30	19.1	19.1	19.1	77	13.1	1	4	112	0.00	30.411 
05:35	19.2	19.2	19.2	77	13.2	2	7	135	0.00	30.411 
05:40	19.2	19.2	19.2	77	13.2	1	3	112	0.00	30.411 
05:45	19.2	19.2	19.2	76	12.9	1	3	112	0.00	30.407 
05:50	19.4	19.4	19.4	76	13.1	1	5	112	0.00	30.407 
05:55	19.4	19.4	19.4	76	13.1	1	5	112	0.00	30.407 
06:00	19.4	19.4	19.4	76	13.1	2	5	90	0.00	30.397 
06:05	19.5	19.5	19.5	76	13.2	1	3	112	0.00	30.397 
06:10	19.5	19.5	19.5	75	12.9	2	4	112	0.00	30.397 
06:15	19.5	19.5	19.5	75	12.9	2	6	90	0.00	30.384 
06:20	19.5	19.5	19.5	75	12.9	2	6	90	0.00	30.384 
06:25	19.7	19.7	19.7	75	13.1	2	5	90	0.00	30.384 
06:30	19.7	19.7	19.7	75	13.1	1	4	90	0.00	30.384 
06:35	19.7	19.7	19.7	75	13.1	1	4	90	0.00	30.384 
06:40	19.9	19.9	19.9	74	13.0	2	5	112	0.00	30.384 
06:45	19.9	19.9	19.9	74	13.0	2	5	112	0.00	30.383 
06:50	19.9	19.9	19.9	74	13.0	1	4	135	0.00	30.383 
06:55	20.0	20.0	20.0	73	12.8	1	6	68	0.00	30.383 
07:00	20.0	20.0	20.0	73	12.8	1	5	68	0.00	30.383 
07:05	20.2	20.2	20.2	72	12.6	2	7	112	0.00	30.383 
07:10	20.2	20.2	20.2	72	12.6	2	5	112	0.00	30.383 
07:15	20.2	20.2	20.2	72	12.6	1	5	112	0.00	30.377 
07:20	20.2	20.2	20.2	72	12.6	2	10	135	0.00	30.377 
07:25	20.2	20.2	20.2	72	12.6	2	10	90	0.00	30.377 
07:30	20.3	20.3	20.3	72	12.7	1	3	112	0.00	30.376 
07:35	20.3	20.3	20.3	72	12.7	2	6	90	0.00	30.376 
07:40	20.5	20.5	20.5	72	12.9	1	5	45	0.00	30.376 
07:45	20.5	20.5	20.5	72	12.9	2	5	90	0.00	30.370 
07:50	20.5	20.5	20.5	72	12.9	2	6	90	0.00	30.370 
07:55	20.5	20.5	20.5	72	12.9	1	4	112	0.00	30.370 
08:00	20.6	20.6	20.6	72	13.0	2	5	90	0.00	30.364 
08:05	20.6	20.6	20.6	72	13.0	2	5	90	0.00	30.364 
08:10	20.6	20.6	20.6	72	13.0	2	5	90	0.00	30.364 
08:15	20.8	20.8	20.8	72	13.2	3	10	90	0.00	30.358 
08:20	20.8	20.8	20.8	71	12.9	2	7	90	0.00	30.358 
08:25	21.0	21.0	21.0	71	13.1	1	9	90	0.00	30.358 
08:30	21.1	21.1	21.1	71	13.2	1	5	270	0.00	30.368 
08:35	21.1	21.1	21.1	71	13.2	1	4	90	0.00	30.368 
08:40	21.3	21.3	21.3	71	13.4	2	6	90	0.00	30.368 
08:45	21.3	21.3	21.3	71	13.4	2	6	135	0.00	30.361 
08:50	21.4	21.4	21.4	71	13.5	1	5	90	0.00	30.361 
08:55	21.4	21.4	21.4	70	13.2	2	4	90	0.00	30.361 
09:00	21.6	21.6	21.6	70	13.4	2	7	90	0.00	30.367 
09:05	21.6	21.6	21.6	70	13.4	1	6	90	0.00	30.367 
09:10	21.6	21.6	21.6	70	13.4	1	6	90	0.00	30.367 
09:15	21.8	21.8	21.8	71	13.9	1	4	90	0.00	30.368 
09:20	21.8	21.8	21.8	70	13.5	1	4	248	0.00	30.368 
09:25	21.9	21.9	21.9	70	13.6	1	6	270	0.00	30.368 
09:30	21.9	21.9	21.9	70	13.6	1	5	90	0.00	30.359 
09:35	22.1	22.1	22.1	70	13.8	2	9	90	0.00	30.359 
09:40	22.1	22.1	22.1	70	13.8	2	5	90	0.00	30.359 
09:45	22.2	22.2	22.2	71	14.3	1	3	90	0.00	30.349 
09:50	22.2	22.2	22.2	72	14.6	2	5	112	0.00	30.349 
09:55	22.4	22.4	22.4	73	15.1	1	5	112	0.00	30.349 
10:00	22.4	22.4	22.4	73	15.1	1	3	112	0.00	30.348 
10:05	22.5	22.5	22.5	73	15.2	1	4	112	0.00	30.348 
10:10	22.5	22.5	22.5	73	15.2	0	3	225	0.00	30.348 
10:15	22.5	22.5	22.5	73	15.2	1	6	248	0.00	30.349 
10:20	22.7	22.7	22.7	73	15.4	1	4	90	0.00	30.349 
10:25	22.5	22.5	22.5	73	15.2	1	4	270	0.00	30.349 
10:30	22.5	22.5	22.5	73	15.2	1	4	248	0.00	30.354 
10:35	22.5	22.5	22.5	74	15.5	2	5	248	0.00	30.354 
10:40	22.5	22.5	22.5	75	15.8	1	7	248	0.00	30.354 
10:45	22.7	22.7	22.7	75	16.0	1	4	292	0.00	30.350 
10:50	22.9	22.9	22.9	76	16.5	0	2	292	0.00	30.350 
10:55	23.0	23.0	23.0	77	16.9	1	2	292	0.00	30.350 
11:00	23.0	23.0	23.0	77	16.9	1	5	248	0.00	30.343 
11:05	23.0	23.0	23.0	77	16.9	0	1	202	0.00	30.343 
11:10	23.0	23.0	23.0	77	16.9	1	3	225	0.00	30.343 
11:15	23.0	23.0	23.0	78	17.2	1	4	248	0.00	30.340 
11:20	22.9	22.9	22.9	78	17.1	0	2	248	0.00	30.340 
11:25	22.9	22.9	22.9	78	17.1	0	2	248	0.00	30.340 
11:30	22.9	22.9	22.9	79	17.4	0	2	248	0.00	30.334 
11:35	22.9	22.9	22.9	79	17.4	0	3	248	0.00	30.334 
11:40	22.9	22.9	22.9	80	17.7	0	2	248	0.00	30.334 
11:45	22.9	22.9	22.9	80	17.7	0	5	68	0.00	30.323 
11:50	22.9	22.9	22.9	80	17.7	0	1	68	0.00	30.323 
11:55	23.0	23.0	23.0	80	17.8	0	2	68	0.00	30.323 
12:00	23.2	23.2	23.2	79	17.7	0	1	315	0.00	30.314 
12:05	23.3	23.3	23.3	79	17.8	0	2	315	0.00	30.314 
12:10	23.5	23.5	23.5	78	17.7	0	2	270	0.00	30.314 
12:15	23.6	23.6	23.6	77	17.5	1	5	248	0.00	30.300 
12:20	23.6	23.6	23.6	76	17.2	1	4	248	0.00	30.300 
12:25	23.8	23.8	23.8	75	17.1	1	4	248	0.00	30.300 
12:30	23.8	23.8	23.8	74	16.7	1	4	248	0.00	30.289 
12:35	23.8	23.8	23.8	73	16.4	1	3	248	0.00	30.289 
12:40	23.9	23.9	23.9	74	16.8	1	4	248	0.00	30.289 
12:45	23.9	23.9	23.9	73	16.5	0	2	248	0.00	30.284 
12:50	24.1	24.1	24.1	73	16.7	0	4	248	0.00	30.284 
12:55	24.1	24.1	24.1	73	16.7	1	5	248	0.00	30.284 
13:00	24.1	24.1	24.1	73	16.7	2	4	248	0.00	30.278 
13:05	24.1	24.1	24.1	73	16.7	1	5	248	0.00	30.278 
13:10	24.1	24.1	24.1	74	17.0	1	5	248	0.00	30.278 
13:15	24.1	24.1	24.1	74	17.0	0	2	248	0.00	30.268 
13:20	24.1	24.1	24.1	75	17.3	0	3	270	0.00	30.268 
13:25	24.1	24.1	24.1	75	17.3	1	4	270	0.00	30.268 
13:30	24.1	24.1	24.1	75	17.3	1	4	248	0.00	30.263 
13:35	24.2	24.2	24.2	75	17.4	0	2	248	0.00	30.263 
13:40	24.4	24.4	24.4	76	17.9	0	2	248	0.00	30.263 
13:45	24.4	24.4	24.4	75	17.6	1	7	248	0.00	30.254 
13:50	24.4	24.4	24.4	74	17.3	2	9	248	0.00	30.254 
13:55	24.4	24.4	24.4	74	17.3	1	5	248	0.00	30.254 
14:00	24.5	24.5	24.5	74	17.4	1	6	248	0.00	30.250 
14:05	24.7	24.7	24.7	74	17.6	1	3	248	0.00	30.250 
14:10	24.7	24.7	24.7	74	17.6	0	3	248	0.00	30.250 
14:15	24.8	24.8	24.8	74	17.7	1	5	248	0.00	30.249 
14:20	24.8	24.8	24.8	74	17.7	1	3	248	0.00	30.249 
14:25	24.7	24.7	24.7	74	17.6	1	4	248	0.00	30.249 
14:30	24.8	24.8	24.8	74	17.7	0	2	248	0.00	30.246 
14:35	24.8	24.8	24.8	74	17.7	0	2	248	0.00	30.246 
14:40	25.0	25.0	25.0	74	17.9	0	2	248	0.00	30.246 
14:45	25.0	25.0	25.0	74	17.9	0	3	248	0.00	30.243 
14:50	25.0	25.0	25.0	74	17.9	0	3	248	0.00	30.243 
14:55	25.0	25.0	25.0	74	17.9	0	4	248	0.00	30.243 
15:00	25.0	25.0	25.0	74	17.9	1	5	248	0.00	30.238 
15:05	25.0	25.0	25.0	74	17.9	0	2	248	0.00	30.238 
15:10	25.0	25.0	25.0	74	17.9	0	3	248	0.00	30.238 
15:15	25.1	25.1	25.1	75	18.3	0	3	248	0.00	30.236 
15:20	25.1	25.1	25.1	74	18.0	1	3	248	0.00	30.236 
15:25	25.1	25.1	25.1	74	18.0	1	3	248	0.00	30.236 
15:30	25.1	25.1	25.1	75	18.3	1	4	248	0.00	30.236 
15:35	25.1	25.1	25.1	75	18.3	0	3	248	0.00	30.236 
15:40	25.1	25.1	25.1	75	18.3	0	3	248	0.00	30.236 
15:45	25.1	25.1	25.1	75	18.3	0	3	248	0.00	30.239 
15:50	25.1	25.1	25.1	75	18.3	0	3	248	0.00	30.239 
15:55	25.1	25.1	25.1	75	18.3	1	5	248	0.00	30.239 
16:00	25.1	25.1	25.1	76	18.6	1	4	248	0.00	30.238 
16:05	25.1	25.1	25.1	76	18.6	0	2	248	0.00	30.238 
16:10	25.1	25.1	25.1	76	18.6	1	4	248	0.00	30.238 
16:15	25.1	25.1	25.1	76	18.6	0	2	248	0.00	30.237 
16:20	25.1	25.1	25.1	76	18.6	1	3	248	0.00	30.237 
16:25	25.3	25.3	25.3	76	18.8	0	2	248	0.00	30.237 
16:30	25.3	25.3	25.3	76	18.8	1	5	248	0.00	30.239 
16:35	25.3	25.3	25.3	77	19.1	0	3	248	0.00	30.239 
16:40	25.3	25.3	25.3	77	19.1	1	5	248	0.00	30.239 
16:45	25.3	25.3	25.3	77	19.1	0	3	248	0.00	30.235 
16:50	25.3	25.3	25.3	77	19.1	0	1	248	0.00	30.235 
16:55	25.3	25.3	25.3	77	19.1	0	2	248	0.00	30.235 
17:00	25.3	25.3	25.3	77	19.1	0	1	248	0.00	30.235 
17:05	25.3	25.3	25.3	77	19.1	0	2	248	0.00	30.235 
17:10	25.3	25.3	25.3	77	19.1	0	1	248	0.00	30.235 
17:15	25.3	25.3	25.3	77	19.1	0	2	248	0.00	30.236 
17:20	25.3	25.3	25.3	77	19.1	0	3	248	0.00	30.236 
17:25	25.4	25.4	25.4	77	19.2	0	2	248	0.00	30.236 
17:30	25.4	25.4	25.4	77	19.2	0	3	248	0.00	30.236 
17:35	25.4	25.4	25.4	77	19.2	1	3	248	0.00	30.236 
17:40	25.4	25.4	25.4	77	19.2	0	2	248	0.00	30.236 
17:45	25.4	25.4	25.4	78	19.5	0	2	248	0.00	30.233 
17:50	25.4	25.4	25.4	78	19.5	0	2	248	0.00	30.233 
17:55	25.4	25.4	25.4	78	19.5	0	1	248	0.00	30.233 
18:00	25.4	25.4	25.4	78	19.5	0	2	248	0.00	30.232 
18:05	25.4	25.4	25.4	78	19.5	0	2	248	0.00	30.232 
18:10	25.4	25.4	25.4	78	19.5	0	1	248	0.00	30.232 
18:15	25.4	25.4	25.4	79	19.8	0	2	248	0.00	30.232 
18:20	25.4	25.4	25.4	79	19.8	0	1	248	0.00	30.232 
18:25	25.4	25.4	25.4	79	19.8	0	2	248	0.00	30.232 
18:30	25.4	25.4	25.4	79	19.8	0	2	248	0.00	30.231 
18:35	25.4	25.4	25.4	79	19.8	0	1	248	0.00	30.231 
18:40	25.4	25.4	25.4	79	19.8	0	1	248	0.00	30.231 
18:45	25.4	25.4	25.4	80	20.1	0	1	248	0.00	30.225 
18:50	25.4	25.4	25.4	80	20.1	0	1	248	0.00	30.225 
18:55	25.4	25.4	25.4	80	20.1	0	2	248	0.00	30.225 
19:00	25.4	25.4	25.4	80	20.1	0	2	248	0.00	30.224 
19:05	25.4	25.4	25.4	80	20.1	0	1	248	0.00	30.224 
19:10	25.4	25.4	25.4	80	20.1	0	1	248	0.00	30.224 
19:15	25.4	25.4	25.4	80	20.1	0	1	248	0.00	30.216 
19:20	25.4	25.4	25.4	80	20.1	0	1	248	0.00	30.216 
19:25	25.6	25.6	25.6	79	20.0	0	2	248	0.00	30.216 
19:30	25.6	25.6	25.6	79	20.0	0	5	135	0.00	30.214 
19:35	25.6	25.6	25.6	79	20.0	0	0	---	0.00	30.214 
19:40	25.6	25.6	25.6	79	20.0	0	2	135	0.00	30.214 
19:45	25.6	25.6	25.6	79	20.0	0	2	135	0.00	30.209 
19:50	25.6	25.6	25.6	79	20.0	0	2	135	0.00	30.209 
19:55	25.7	25.7	25.7	78	19.8	0	2	135	0.00	30.209 
20:00	25.7	25.7	25.7	78	19.8	0	3	225	0.00	30.210 
20:05	25.7	25.7	25.7	78	19.8	0	2	225	0.00	30.210 
20:10	25.8	25.8	25.8	78	19.9	0	2	225	0.00	30.210 
20:15	25.8	25.8	25.8	78	19.9	0	2	225	0.00	30.209 
20:20	25.8	25.8	25.8	78	19.9	0	2	225	0.00	30.209 
20:25	25.8	25.8	25.8	77	19.6	0	2	225	0.00	30.209 
20:30	25.8	25.8	25.8	77	19.6	0	3	225	0.00	30.204 
20:35	25.8	25.8	25.8	77	19.6	0	3	225	0.00	30.204 
20:40	26.0	26.0	26.0	78	20.1	0	2	225	0.00	30.204 
20:45	26.0	26.0	26.0	78	20.1	0	3	225	0.00	30.201 
20:50	26.0	26.0	26.0	78	20.1	0	3	225	0.00	30.201 
20:55	26.0	26.0	26.0	78	20.1	0	3	248	0.00	30.201 
21:00	26.0	26.0	26.0	78	20.1	0	2	248	0.00	30.195 
21:05	26.0	26.0	26.0	78	20.1	0	2	248	0.00	30.195 
21:10	26.0	26.0	26.0	78	20.1	0	3	248	0.00	30.195 
21:15	26.0	26.0	26.0	78	20.1	0	2	248	0.00	30.190 
21:20	26.0	26.0	26.0	78	20.1	0	3	248	0.00	30.190 
21:25	26.0	26.0	26.0	78	20.1	0	3	248	0.00	30.190 
21:30	26.0	26.0	26.0	78	20.1	1	4	248	0.00	30.185 
21:35	26.0	26.0	26.0	78	20.1	0	5	248	0.00	30.185 
21:40	26.0	26.0	26.0	78	20.1	0	3	248	0.00	30.185 
21:45	26.0	26.0	26.0	78	20.1	1	3	248	0.00	30.186 
21:50	26.0	26.0	26.0	78	20.1	0	3	248	0.00	30.186 
21:55	26.1	26.1	26.1	78	20.2	0	2	248	0.00	30.186 
22:00	26.1	26.1	26.1	78	20.2	0	2	248	0.00	30.180 
22:05	26.1	26.1	26.1	78	20.2	0	2	248	0.00	30.180 
22:10	26.1	26.1	26.1	78	20.2	0	2	248	0.00	30.180 
22:15	26.1	26.1	26.1	79	20.5	1	5	248	0.00	30.176 
22:20	26.1	26.1	26.1	79	20.5	0	4	248	0.00	30.176 
22:25	26.1	26.1	26.1	80	20.8	0	2	248	0.00	30.176 
22:30	26.1	26.1	26.1	80	20.8	0	3	248	0.00	30.170 
22:35	26.1	26.1	26.1	81	21.1	1	4	248	0.00	30.170 
22:40	26.1	26.1	26.1	81	21.1	0	2	248	0.00	30.170 
22:45	26.1	26.1	26.1	82	21.4	1	3	248	0.00	30.165 
22:50	26.1	26.1	26.1	82	21.4	0	2	248	0.00	30.165 
22:55	26.1	26.1	26.1	83	21.7	0	3	248	0.00	30.165 
23:00	26.1	26.1	26.1	84	21.9	1	4	248	0.00	30.164 
23:05	26.1	26.1	26.1	84	21.9	1	3	248	0.00	30.164 
23:10	26.1	26.1	26.1	84	21.9	0	4	248	0.00	30.164 
23:15	26.1	26.1	26.1	84	21.9	0	2	248	0.00	30.161 
23:20	26.1	26.1	26.1	85	22.2	0	2	248	0.00	30.161 
23:25	26.1	26.1	26.1	85	22.2	0	2	248	0.00	30.161 
23:30	26.1	26.1	26.1	85	22.2	0	2	248	0.00	30.149 
23:35	26.1	26.1	26.1	86	22.5	0	1	248	0.00	30.149 
23:40	26.1	26.1	26.1	86	22.5	0	4	90	0.00	30.149 
23:45	26.1	26.1	26.1	86	22.5	1	4	248	0.00	30.143 
23:50	26.1	26.1	26.1	86	22.5	0	2	248	0.00	30.143 
23:55	26.3	26.3	26.3	86	22.7	0	2	248	0.00	30.143 

CoCoRaHS
IN-AL-39
A2 Web Hosting
Creative Commons License
GoDaddy
search engine by freefind advanced

loaded 2018-11-17 23:09:52 • last modified 2010-11-18 10:43:29
Privacy PolicyDisclaimer
• wx.awcolley.com is powered by PmWiki v.2002016 •
• all content (unless otherwise noted) © 2018 A W Colley